首页
METAR-TAF:

METAR-TAF

机场 :

萨格勒布机场

萨格勒布, 克罗地亚

纬度: 45-44N, 经度: 016-04E, 海拔: 106米

当前天气观测

该预报发布于15分钟前的14:00 UTC
风速9节,风向北转东北,在北转西北之间变化
温度 27°C
湿度 42%
气压 1019 hPa
能见度10公里或以上
1500米以下无云,无积雨云

METAR: LDZA 191400Z 03009KT 330V080 CAVOK 27/13 Q1019 NOSIG

时间: 16:15 (14:15 UTC)

预报

该预报发布于2小时和50分钟前的11:25 UTC
预报有效从19日的 12点(UTC)到 20日的 12点(UTC)
风速7节,风向
能见度10公里或以上
1500米以下无云,无积雨云
几率 30% :
短暂存在
从 19日的 12点(UTC)到 19日的 16点(UTC)
风速12节,风向北转东北,有时为22节阵风

TAF: LDZA 191125Z 1912/2012 01007KT CAVOK TX28/1912Z TN18/2003Z PROB30 TEMPO 1912/1916 02012G22KT

超过4000个机场的气象观测和天气预报(METAR&TAF报告)。

可查询的气象台以黄色和红色小点在地图上表示。

将鼠标移到小点上方,可查看气象台名称。

然后点击查看天气观测和预报。

如需切换地图:点击带黑十字的绿色按钮放大地图;点击带横线的绿色按钮缩小地图;或者点击绿色箭头查看邻近地区的地图。


METAR-TAF: